Time;durP1;ratioP1;P1;durP2;ratioP2;P2;SDS_P1;SDS_P2;PMS_P1;PMS_P2;Temp;Humidity;BMP_temperature;BMP_pressure;BME280_temperature;BME280_humidity;BME280_pressure;Samples;Min_cycle;Max_cycle;Signal;HPM_P1;HPM_P2
2022/10/06 00:01:40;;;;;;;4.57;0.88;;;14.70;99.90;;;;;;5037388;28;20035;-62
2022/10/06 00:04:06;;;;;;;8.73;1.05;;;14.70;99.80;;;;;;5053767;28;20021;-62
2022/10/06 00:06:32;;;;;;;4.72;0.80;;;14.60;99.60;;;;;;5045681;28;20021;-62
2022/10/06 00:08:57;;;;;;;7.90;0.90;;;14.60;99.50;;;;;;5046011;28;20036;-62
2022/10/06 00:11:23;;;;;;;6.35;1.20;;;14.50;99.50;;;;;;5055172;28;20029;-62
2022/10/06 00:13:49;;;;;;;5.05;0.95;;;14.50;99.60;;;;;;5037297;28;20356;-62
2022/10/06 00:16:21;;;;;;;4.57;1.08;;;14.50;99.60;;;;;;5037954;28;20029;-62
2022/10/06 00:18:46;;;;;;;5.13;0.80;;;14.40;99.50;;;;;;5036973;28;20057;-62
2022/10/06 00:21:12;;;;;;;4.47;0.75;;;14.40;99.60;;;;;;5043959;28;20036;-62
2022/10/06 00:23:38;;;;;;;4.95;1.00;;;14.30;99.50;;;;;;5053367;28;20556;-62
2022/10/06 00:26:03;;;;;;;4.75;0.80;;;14.30;99.50;;;;;;5058898;28;20040;-62
2022/10/06 00:28:29;;;;;;;5.63;1.02;;;14.30;99.50;;;;;;5043111;28;20017;-62
2022/10/06 00:30:55;;;;;;;6.43;1.08;;;14.30;99.40;;;;;;5048449;28;20029;-62
2022/10/06 00:33:22;;;;;;;5.82;1.20;;;14.30;99.30;;;;;;5041195;28;20025;-62
2022/10/06 00:35:55;;;;;;;5.50;0.90;;;14.30;99.20;;;;;;5042460;28;20573;-62
2022/10/06 00:38:21;;;;;;;5.93;2.00;;;14.30;99.00;;;;;;5037302;28;20033;-62
2022/10/06 00:40:49;;;;;;;9.02;1.50;;;14.20;98.90;;;;;;5040661;28;20018;-62
2022/10/06 00:43:42;;;;;;;7.45;1.55;;;14.20;98.80;;;;;;5045468;28;20053;-62
2022/10/06 00:46:32;;;;;;;5.18;1.35;;;14.20;98.70;;;;;;5063305;28;20550;-62
2022/10/06 00:49:10;;;;;;;6.35;0.82;;;14.20;98.70;;;;;;5043626;28;20491;-62
2022/10/06 00:51:39;;;;;;;10.35;1.25;;;14.10;98.60;;;;;;5045824;28;20017;-62
2022/10/06 00:54:06;;;;;;;7.55;1.58;;;14.10;98.60;;;;;;5049242;28;20051;-62
2022/10/06 00:56:31;;;;;;;6.38;2.65;;;14.10;98.60;;;;;;5047278;28;20539;-62
2022/10/06 00:58:57;;;;;;;5.85;0.90;;;14.10;98.50;;;;;;5048849;28;20033;-62
2022/10/06 01:01:23;;;;;;;10.57;1.27;;;14.10;98.40;;;;;;5043085;28;20448;-62
2022/10/06 01:03:55;;;;;;;9.13;1.50;;;14.10;98.30;;;;;;5049403;28;20021;-62
2022/10/06 01:06:21;;;;;;;4.63;0.90;;;14.10;98.30;;;;;;5050204;28;20035;-62
2022/10/06 01:08:46;;;;;;;4.90;0.90;;;14.10;98.20;;;;;;5056930;28;20021;-62
2022/10/06 01:11:13;;;;;;;8.85;1.10;;;14.00;98.10;;;;;;5045079;28;20036;-62
2022/10/06 01:13:42;;;;;;;5.05;0.95;;;14.00;98.10;;;;;;5047870;28;20401;-62
2022/10/06 01:16:25;;;;;;;8.60;1.10;;;14.00;98.10;;;;;;5049577;28;20025;-62
2022/10/06 01:18:53;;;;;;;6.18;1.00;;;13.90;98.10;;;;;;5044954;28;20033;-62
2022/10/06 01:21:41;;;;;;;7.45;0.82;;;13.90;98.20;;;;;;5047760;28;20075;-62
2022/10/06 01:24:06;;;;;;;5.43;0.93;;;13.90;98.10;;;;;;5048574;28;20056;-62
2022/10/06 01:26:34;;;;;;;8.68;1.05;;;13.80;98.20;;;;;;5051691;28;20053;-62
2022/10/06 01:29:00;;;;;;;5.32;0.75;;;13.80;98.20;;;;;;5043993;28;20025;-62
2022/10/06 01:31:26;;;;;;;7.78;0.98;;;13.80;98.20;;;;;;5046429;28;20028;-62
2022/10/06 01:33:55;;;;;;;7.53;1.52;;;13.80;98.10;;;;;;5040957;28;20025;-62
2022/10/06 01:36:20;;;;;;;10.48;1.20;;;13.80;98.40;;;;;;5048805;28;20433;-62
2022/10/06 01:38:46;;;;;;;7.00;0.93;;;13.70;98.20;;;;;;5047267;28;20057;-62
2022/10/06 01:41:12;;;;;;;7.50;1.02;;;13.70;98.20;;;;;;5044355;28;20033;-62
2022/10/06 01:43:37;;;;;;;7.40;1.10;;;13.70;98.20;;;;;;5049036;28;20370;-62
2022/10/06 01:46:03;;;;;;;6.68;0.80;;;13.70;98.30;;;;;;5035171;28;20064;-62
2022/10/06 01:48:29;;;;;;;5.28;0.95;;;13.60;98.20;;;;;;5047575;28;20025;-62
2022/10/06 01:50:54;;;;;;;12.43;0.98;;;13.60;98.20;;;;;;5048394;28;20060;-62
2022/10/06 01:53:20;;;;;;;5.15;0.68;;;13.60;98.20;;;;;;5041206;28;20032;-62
2022/10/06 01:55:46;;;;;;;6.15;0.80;;;13.50;98.30;;;;;;5043478;28;20029;-62
2022/10/06 01:58:12;;;;;;;6.13;1.30;;;13.50;98.30;;;;;;5054594;28;20393;-62
2022/10/06 02:00:44;;;;;;;5.28;1.02;;;13.50;98.30;;;;;;5050956;28;20040;-62
2022/10/06 02:03:10;;;;;;;9.65;2.33;;;13.50;98.30;;;;;;5043016;28;20025;-62
2022/10/06 02:05:36;;;;;;;7.55;1.30;;;13.50;98.20;;;;;;5041016;28;20021;-62
2022/10/06 02:08:01;;;;;;;8.45;1.45;;;13.50;98.20;;;;;;5060232;28;20041;-62
2022/10/06 02:10:27;;;;;;;7.55;1.33;;;13.40;98.20;;;;;;5048172;28;20036;-62
2022/10/06 02:12:53;;;;;;;8.15;1.92;;;13.40;98.30;;;;;;5059294;28;20048;-62
2022/10/06 02:15:19;;;;;;;7.38;1.08;;;13.40;98.30;;;;;;5049870;28;20107;-62
2022/10/06 02:17:46;;;;;;;7.05;0.82;;;13.30;98.30;;;;;;5045131;28;20029;-62
2022/10/06 02:20:12;;;;;;;6.93;1.15;;;13.40;98.30;;;;;;5051671;28;20021;-62
2022/10/06 02:22:42;;;;;;;6.30;0.90;;;13.40;98.30;;;;;;5047606;28;20040;-62
2022/10/06 02:25:09;;;;;;;4.47;0.95;;;13.30;98.30;;;;;;5034177;28;20048;-62
2022/10/06 02:27:35;;;;;;;4.95;1.20;;;13.30;98.30;;;;;;5048063;28;20448;-62
2022/10/06 02:30:00;;;;;;;8.13;1.00;;;13.30;98.40;;;;;;5053263;28;20052;-62
2022/10/06 02:32:35;;;;;;;5.30;0.88;;;13.20;98.40;;;;;;5049653;28;20055;-62
2022/10/06 02:35:02;;;;;;;5.50;1.20;;;13.20;98.40;;;;;;5041945;28;20033;-62
2022/10/06 02:37:28;;;;;;;9.38;0.93;;;13.10;98.50;;;;;;5042287;28;20030;-62
2022/10/06 02:39:54;;;;;;;10.35;1.40;;;13.10;98.60;;;;;;5034270;28;20025;-62
2022/10/06 02:42:20;;;;;;;5.53;0.85;;;13.10;98.70;;;;;;5041135;28;21211;-62
2022/10/06 02:44:45;;;;;;;6.05;0.98;;;13.00;98.70;;;;;;5047384;28;20029;-62
2022/10/06 02:47:15;;;;;;;8.05;1.23;;;13.00;98.80;;;;;;5061134;28;20017;-62
2022/10/06 02:49:40;;;;;;;5.90;1.00;;;13.00;98.90;;;;;;5041445;28;20052;-62
2022/10/06 02:52:07;;;;;;;7.95;1.20;;;13.00;98.90;;;;;;5045534;28;20032;-62
2022/10/06 02:54:34;;;;;;;8.25;1.00;;;12.90;99.00;;;;;;5044318;28;20482;-62
2022/10/06 02:56:59;;;;;;;11.20;1.40;;;12.90;99.10;;;;;;5054988;28;20119;-62
2022/10/06 02:59:25;;;;;;;10.07;1.35;;;12.90;99.20;;;;;;5044140;28;20100;-62
2022/10/06 03:01:51;;;;;;;8.23;1.77;;;12.90;99.40;;;;;;5053690;28;20052;-62
2022/10/06 03:04:16;;;;;;;9.93;1.73;;;12.90;99.80;;;;;;5050438;28;20397;-62
2022/10/06 03:06:42;;;;;;;6.55;1.20;;;12.90;99.50;;;;;;5046211;28;20582;-62
2022/10/06 03:09:09;;;;;;;9.93;1.75;;;12.90;99.50;;;;;;5045423;28;20024;-62
2022/10/06 03:11:37;;;;;;;8.80;1.40;;;12.80;99.60;;;;;;5045572;28;20124;-62
2022/10/06 03:14:04;;;;;;;10.45;1.70;;;12.80;99.60;;;;;;5037466;28;20029;-62
2022/10/06 03:16:37;;;;;;;4.43;0.80;;;12.80;99.70;;;;;;5045953;28;20025;-62
2022/10/06 03:19:03;;;;;;;9.15;1.15;;;12.80;99.80;;;;;;5045144;28;20102;-62
2022/10/06 03:21:31;;;;;;;6.65;1.33;;;12.70;99.80;;;;;;5045334;28;20025;-62
2022/10/06 03:23:58;;;;;;;6.22;0.75;;;12.70;99.80;;;;;;5044032;28;20497;-61
2022/10/06 03:26:27;;;;;;;7.20;1.00;;;12.70;99.90;;;;;;5041173;28;20037;-62
2022/10/06 03:28:53;;;;;;;9.45;1.15;;;12.70;99.90;;;;;;5043922;28;20027;-62
2022/10/06 03:31:28;;;;;;;7.95;1.00;;;12.70;99.90;;;;;;5041265;28;20030;-62
2022/10/06 03:33:55;;;;;;;5.43;1.13;;;12.60;99.90;;;;;;5047731;28;20027;-62
2022/10/06 03:36:22;;;;;;;7.13;1.30;;;12.60;99.90;;;;;;5048739;28;20029;-62
2022/10/06 03:38:49;;;;;;;7.60;1.20;;;12.50;99.90;;;;;;5041045;28;20397;-62
2022/10/06 03:41:20;;;;;;;8.23;1.02;;;12.60;99.90;;;;;;5047788;28;20550;-62
2022/10/06 03:43:48;;;;;;;7.35;1.00;;;12.60;99.90;;;;;;5040770;28;20423;-62
2022/10/06 03:46:17;;;;;;;10.13;1.30;;;12.50;99.90;;;;;;5046397;28;20079;-62
2022/10/06 03:48:43;;;;;;;6.63;1.13;;;12.40;99.90;;;;;;5053106;28;20028;-62
2022/10/06 03:51:13;;;;;;;6.82;1.20;;;12.40;99.90;;;;;;5056280;28;20025;-62
2022/10/06 03:53:39;;;;;;;7.30;1.10;;;12.40;99.90;;;;;;5042229;28;20029;-62
2022/10/06 03:56:10;;;;;;;6.07;1.45;;;12.40;99.90;;;;;;5047296;28;20477;-62
2022/10/06 03:58:38;;;;;;;5.75;1.15;;;12.30;99.90;;;;;;5040801;28;20032;-62
2022/10/06 04:01:07;;;;;;;6.47;0.90;;;12.30;99.90;;;;;;5039865;28;20074;-62
2022/10/06 04:03:34;;;;;;;7.47;0.93;;;12.30;99.90;;;;;;5047259;28;20052;-62
2022/10/06 04:06:02;;;;;;;7.70;1.25;;;12.30;99.90;;;;;;5042492;28;20039;-62
2022/10/06 04:08:28;;;;;;;8.50;1.10;;;12.30;99.90;;;;;;5042218;28;20032;-62
2022/10/06 04:10:54;;;;;;;5.88;0.90;;;12.20;99.90;;;;;;5043829;28;20021;-62
2022/10/06 04:13:21;;;;;;;15.30;2.10;;;12.20;99.90;;;;;;5044928;28;20078;-62
2022/10/06 04:15:47;;;;;;;9.15;1.60;;;12.20;99.90;;;;;;5042749;28;20036;-62
2022/10/06 04:18:14;;;;;;;7.28;1.20;;;12.20;99.90;;;;;;5045381;28;20512;-62
2022/10/06 04:20:40;;;;;;;7.75;2.03;;;12.20;99.90;;;;;;5044167;28;20489;-62
2022/10/06 04:23:06;;;;;;;5.47;0.90;;;12.20;99.90;;;;;;5046805;28;20027;-62
2022/10/06 04:25:33;;;;;;;12.52;1.35;;;12.20;99.90;;;;;;5043605;28;20043;-62
2022/10/06 04:27:58;;;;;;;7.35;1.55;;;12.10;99.90;;;;;;5046842;28;20036;-62
2022/10/06 04:30:25;;;;;;;7.50;1.40;;;12.10;99.90;;;;;;5045170;28;20021;-61
2022/10/06 04:32:51;;;;;;;6.55;1.00;;;12.10;99.90;;;;;;5039368;28;20021;-61
2022/10/06 04:35:16;;;;;;;5.55;1.15;;;12.10;99.90;;;;;;5046149;28;20485;-62
2022/10/06 04:37:42;;;;;;;7.28;1.25;;;12.10;99.90;;;;;;5047937;28;20032;-62
2022/10/06 04:40:08;;;;;;;6.20;0.98;;;12.00;99.90;;;;;;5040802;28;20109;-62
2022/10/06 04:42:35;;;;;;;10.90;1.60;;;12.00;99.90;;;;;;5058148;28;20057;-61
2022/10/06 04:45:00;;;;;;;5.63;1.15;;;12.00;99.90;;;;;;5046415;28;20520;-61
2022/10/06 04:47:26;;;;;;;8.82;1.10;;;12.00;99.90;;;;;;5053307;28;20115;-61
2022/10/06 04:49:51;;;;;;;8.13;1.25;;;11.90;99.90;;;;;;5044937;28;20416;-61
2022/10/06 04:52:17;;;;;;;6.95;0.90;;;11.90;99.90;;;;;;5046247;28;20039;-62
2022/10/06 04:54:42;;;;;;;8.18;1.52;;;11.90;99.90;;;;;;5042356;28;20049;-62
2022/10/06 04:57:08;;;;;;;11.15;1.50;;;11.90;99.90;;;;;;5040115;28;20064;-62
2022/10/06 05:02:19;;;;;;;6.95;1.30;;;11.90;99.90;;;;;;5037779;28;20067;-62
2022/10/06 05:04:45;;;;;;;9.40;1.30;;;11.80;99.90;;;;;;5046377;28;20366;-62
2022/10/06 05:07:11;;;;;;;8.43;2.30;;;11.80;99.90;;;;;;5039400;28;20072;-62
2022/10/06 05:09:36;;;;;;;9.73;1.42;;;11.80;99.90;;;;;;5037889;28;20025;-62
2022/10/06 05:12:02;;;;;;;10.25;1.30;;;11.70;99.90;;;;;;5046878;28;20025;-62
2022/10/06 05:14:27;;;;;;;11.73;2.03;;;11.70;99.90;;;;;;5051794;28;20021;-62
2022/10/06 05:16:53;;;;;;;9.18;0.90;;;11.70;99.90;;;;;;5040499;28;20021;-62
2022/10/06 05:19:18;;;;;;;9.50;1.50;;;11.70;99.90;;;;;;5050619;28;20384;-62
2022/10/06 05:21:44;;;;;;;11.90;1.75;;;11.60;99.90;;;;;;5051424;28;20022;-62
2022/10/06 05:24:09;;;;;;;8.05;1.15;;;11.60;99.90;;;;;;5050271;28;20427;-62
2022/10/06 05:26:35;;;;;;;11.15;1.30;;;11.60;99.90;;;;;;5045730;28;20528;-62
2022/10/06 05:29:02;;;;;;;8.07;1.10;;;11.60;99.90;;;;;;5043846;28;20479;-62
2022/10/06 05:31:30;;;;;;;10.10;1.42;;;11.60;99.90;;;;;;5051704;28;20063;-62
2022/10/06 05:33:57;;;;;;;9.55;1.52;;;11.60;99.90;;;;;;5054051;28;20025;-62
2022/10/06 05:36:24;;;;;;;6.93;1.02;;;11.50;99.90;;;;;;5054756;28;20388;-62
2022/10/06 05:38:50;;;;;;;6.88;1.63;;;11.60;99.90;;;;;;5053563;28;20029;-62
2022/10/06 05:41:30;;;;;;;7.72;1.27;;;11.50;99.90;;;;;;5054801;28;20017;-62
2022/10/06 05:43:57;;;;;;;7.95;0.98;;;11.50;99.90;;;;;;5054643;28;20112;-62
2022/10/06 05:46:27;;;;;;;8.63;1.33;;;11.50;99.90;;;;;;5054972;28;20022;-62
2022/10/06 05:48:55;;;;;;;11.90;1.67;;;11.40;99.90;;;;;;5054619;28;20021;-61
2022/10/06 05:51:22;;;;;;;7.72;1.20;;;11.40;99.90;;;;;;5045755;28;20026;-61
2022/10/06 05:53:48;;;;;;;12.10;1.63;;;11.40;99.90;;;;;;5049041;28;20049;-61
2022/10/06 05:56:17;;;;;;;9.75;2.10;;;11.40;99.90;;;;;;5054688;28;20099;-62
2022/10/06 05:58:45;;;;;;;8.70;1.73;;;11.40;99.90;;;;;;5052882;28;20045;-61
2022/10/06 06:01:13;;;;;;;15.18;3.00;;;11.40;99.90;;;;;;5054265;28;20033;-61
2022/10/06 06:03:40;;;;;;;6.32;1.45;;;11.30;99.90;;;;;;5049120;28;20118;-61
2022/10/06 06:06:31;;;;;;;9.35;1.67;;;11.30;99.90;;;;;;5054028;28;20036;-62
2022/10/06 06:08:59;;;;;;;11.95;1.60;;;11.30;99.90;;;;;;5051934;28;20037;-62
2022/10/06 06:11:26;;;;;;;11.60;1.90;;;11.30;99.90;;;;;;5042669;28;20040;-62
2022/10/06 06:17:10;;;;;;;10.00;1.77;;;11.30;99.90;;;;;;5053433;28;20070;-62
2022/10/06 06:19:38;;;;;;;8.93;1.58;;;11.30;99.90;;;;;;5053562;28;20021;-61
2022/10/06 06:22:04;;;;;;;7.38;1.95;;;11.30;99.90;;;;;;5052702;28;20092;-61
2022/10/06 06:24:29;;;;;;;8.60;1.55;;;11.30;99.90;;;;;;5052816;28;20163;-62
2022/10/06 06:26:55;;;;;;;13.20;2.42;;;11.40;99.90;;;;;;5053063;28;20108;-62
2022/10/06 06:29:21;;;;;;;14.85;1.88;;;11.30;99.90;;;;;;5052829;28;20013;-62
2022/10/06 06:31:47;;;;;;;9.57;2.40;;;11.30;99.90;;;;;;5054147;28;20423;-62
2022/10/06 06:34:12;;;;;;;12.40;2.20;;;11.30;99.90;;;;;;5051835;28;20017;-62
2022/10/06 06:36:39;;;;;;;11.48;2.15;;;11.30;99.90;;;;;;5051601;28;20029;-61
2022/10/06 06:39:16;;;;;;;15.45;2.30;;;11.30;99.90;;;;;;5050588;28;20029;-61
2022/10/06 06:41:44;;;;;;;9.60;2.33;;;11.30;99.90;;;;;;5051810;28;20116;-61
2022/10/06 06:44:10;;;;;;;14.35;3.33;;;11.30;99.90;;;;;;5049702;28;20539;-61
2022/10/06 06:46:37;;;;;;;10.65;2.20;;;11.30;99.90;;;;;;5048255;28;20029;-61
2022/10/06 06:49:04;;;;;;;10.02;2.22;;;11.40;99.90;;;;;;5049164;28;20074;-61
2022/10/06 06:51:36;;;;;;;12.38;2.60;;;11.40;99.90;;;;;;5052100;28;20028;-61
2022/10/06 06:54:01;;;;;;;13.27;2.45;;;11.40;99.90;;;;;;5050117;28;20071;-62
2022/10/06 06:56:28;;;;;;;9.73;1.90;;;11.40;99.90;;;;;;5039127;28;20028;-62
2022/10/06 06:58:54;;;;;;;11.57;3.05;;;11.40;99.90;;;;;;5044098;28;20040;-62
2022/10/06 07:01:21;;;;;;;12.13;2.35;;;11.40;99.90;;;;;;5045802;28;20369;-62
2022/10/06 07:03:52;;;;;;;15.13;2.83;;;11.50;99.90;;;;;;5047215;28;20095;-61
2022/10/06 07:06:18;;;;;;;18.02;2.70;;;11.50;99.90;;;;;;5044665;28;20025;-62
2022/10/06 07:08:45;;;;;;;9.55;2.63;;;11.50;99.90;;;;;;5038970;28;20075;-62
2022/10/06 07:11:16;;;;;;;9.48;1.98;;;11.50;99.90;;;;;;5038948;28;20017;-61
2022/10/06 07:13:42;;;;;;;8.48;1.92;;;11.60;99.90;;;;;;5044295;28;20362;-61
2022/10/06 07:27:31;;;;;;;10.23;1.90;;;11.70;99.90;;;;;;5037138;28;20433;-61
2022/10/06 07:29:56;;;;;;;12.90;3.17;;;11.80;99.90;;;;;;5050939;28;20036;-61
2022/10/06 07:32:23;;;;;;;11.63;3.00;;;11.80;99.90;;;;;;5045106;28;20021;-62
2022/10/06 07:34:49;;;;;;;12.40;2.75;;;11.90;99.90;;;;;;5049466;28;20052;-62
2022/10/06 07:37:15;;;;;;;10.50;2.75;;;11.90;99.90;;;;;;5034202;28;20065;-61
2022/10/06 07:39:40;;;;;;;13.95;2.50;;;12.00;99.90;;;;;;5051858;28;20480;-61
2022/10/06 07:42:12;;;;;;;10.73;2.80;;;12.00;99.90;;;;;;5049058;28;20352;-62
2022/10/06 07:44:38;;;;;;;13.80;2.90;;;12.10;99.90;;;;;;5050912;28;20017;-62
2022/10/06 07:47:04;;;;;;;15.25;2.42;;;12.10;99.90;;;;;;5050908;28;20107;-61
2022/10/06 07:49:30;;;;;;;12.20;2.15;;;12.20;99.90;;;;;;5050944;28;20096;-61
2022/10/06 07:51:57;;;;;;;11.73;2.67;;;12.20;99.90;;;;;;5047147;28;20486;-61
2022/10/06 07:54:23;;;;;;;8.07;1.90;;;12.30;99.90;;;;;;5049569;28;20024;-61
2022/10/06 07:56:49;;;;;;;8.70;2.05;;;12.30;99.90;;;;;;5049702;28;20032;-62
2022/10/06 07:59:15;;;;;;;9.75;2.05;;;12.40;99.90;;;;;;5051341;28;20017;-62
2022/10/06 08:01:42;;;;;;;8.85;2.22;;;12.50;99.90;;;;;;5050056;28;20074;-62
2022/10/06 08:04:08;;;;;;;8.48;1.55;;;12.50;99.90;;;;;;5050740;28;20024;-62
2022/10/06 08:06:34;;;;;;;9.15;1.77;;;12.60;99.90;;;;;;5050629;28;20036;-62
2022/10/06 08:09:00;;;;;;;9.63;1.73;;;12.70;99.90;;;;;;5049817;28;20017;-62
2022/10/06 08:11:25;;;;;;;12.00;2.80;;;12.70;99.90;;;;;;5049971;28;20074;-61
2022/10/06 08:13:51;;;;;;;9.82;1.42;;;12.80;99.90;;;;;;5052326;28;20159;-61
2022/10/06 08:16:19;;;;;;;13.85;2.42;;;12.80;99.90;;;;;;5052214;28;20029;-62
2022/10/06 08:18:53;;;;;;;10.02;1.85;;;12.90;99.90;;;;;;5039948;28;20025;-62
2022/10/06 08:21:28;;;;;;;9.73;1.88;;;13.00;99.90;;;;;;5042559;28;20508;-62
2022/10/06 08:23:55;;;;;;;9.40;1.40;;;13.10;99.90;;;;;;5033555;28;20051;-62
2022/10/06 08:26:22;;;;;;;10.50;1.50;;;13.10;99.90;;;;;;5047640;28;20463;-62
2022/10/06 08:28:51;;;;;;;7.90;1.73;;;13.20;99.90;;;;;;5051269;28;20509;-62
2022/10/06 08:31:20;;;;;;;9.38;1.50;;;13.30;99.90;;;;;;5042821;28;20385;-61
2022/10/06 08:33:46;;;;;;;9.95;2.67;;;13.40;99.90;;;;;;5050226;28;20021;-62
2022/10/06 08:36:13;;;;;;;10.07;1.85;;;13.40;99.90;;;;;;5051562;28;20481;-62
2022/10/06 08:38:39;;;;;;;9.63;1.98;;;13.50;99.70;;;;;;5042742;28;20030;-62
2022/10/06 08:41:20;;;;;;;11.35;1.60;;;13.50;99.50;;;;;;5049692;28;20358;-62
2022/10/06 08:44:18;;;;;;;12.10;1.50;;;13.60;99.30;;;;;;5049065;28;20071;-62
2022/10/06 08:47:12;;;;;;;10.27;1.60;;;13.70;99.10;;;;;;5051849;28;20021;-62
2022/10/06 08:49:43;;;;;;;10.75;1.50;;;13.80;98.80;;;;;;5057689;28;20477;-62
2022/10/06 08:52:22;;;;;;;9.27;1.50;;;13.80;98.40;;;;;;5036689;28;20017;-62
2022/10/06 08:55:23;;;;;;;5.50;1.10;;;13.90;97.90;;;;;;5044698;28;20029;-62
2022/10/06 08:58:16;;;;;;;11.95;1.25;;;14.00;97.50;;;;;;5030966;28;20073;-62
2022/10/06 09:00:42;;;;;;;8.07;2.20;;;14.10;97.30;;;;;;5038965;28;20374;-62
2022/10/06 09:03:22;;;;;;;9.48;1.40;;;14.10;96.90;;;;;;5051628;28;20102;-62
2022/10/06 09:06:01;;;;;;;6.93;1.00;;;14.20;96.70;;;;;;5041640;28;20030;-62
2022/10/06 09:08:45;;;;;;;6.67;0.90;;;14.30;96.70;;;;;;5048825;28;20013;-62
2022/10/06 09:11:35;;;;;;;6.97;2.15;;;14.30;96.50;;;;;;5047950;28;20036;-62
2022/10/06 09:14:28;;;;;;;11.25;1.25;;;14.40;96.30;;;;;;5039871;28;20017;-62
2022/10/06 09:17:01;;;;;;;7.65;1.30;;;14.50;95.90;;;;;;5048887;28;20075;-62
2022/10/06 09:19:34;;;;;;;12.43;1.50;;;14.50;95.30;;;;;;5051412;28;20127;-62
2022/10/06 09:22:03;;;;;;;6.45;1.50;;;14.60;95.10;;;;;;5052725;28;20096;-62
2022/10/06 09:24:31;;;;;;;9.00;1.08;;;14.70;95.20;;;;;;5050238;28;20025;-62
2022/10/06 09:26:57;;;;;;;6.93;1.10;;;14.80;95.40;;;;;;5053909;28;20025;-63
2022/10/06 09:29:24;;;;;;;11.60;1.40;;;14.90;94.90;;;;;;5049962;28;20018;-62
2022/10/06 09:31:49;;;;;;;10.38;1.50;;;15.00;94.70;;;;;;5044487;28;20024;-62
2022/10/06 09:34:33;;;;;;;6.28;1.13;;;15.10;94.40;;;;;;5053772;28;20017;-62
2022/10/06 09:37:01;;;;;;;5.93;1.35;;;15.20;93.90;;;;;;5052677;28;20088;-62
2022/10/06 09:39:49;;;;;;;9.32;1.20;;;15.30;93.80;;;;;;5051535;28;20020;-62
2022/10/06 09:42:21;;;;;;;11.00;1.90;;;15.50;93.80;;;;;;5053483;28;20079;-62
2022/10/06 09:44:55;;;;;;;9.85;1.58;;;15.60;92.90;;;;;;5053191;28;20009;-62
2022/10/06 09:47:33;;;;;;;7.32;1.40;;;15.70;92.50;;;;;;5053620;28;20533;-62
2022/10/06 09:50:20;;;;;;;6.47;1.05;;;16.00;92.50;;;;;;5052424;28;20455;-62
2022/10/06 09:53:04;;;;;;;5.78;0.82;;;16.20;92.30;;;;;;5068568;28;20021;-62
2022/10/06 09:55:35;;;;;;;9.73;1.30;;;16.30;91.40;;;;;;5053066;28;20071;-62
2022/10/06 09:58:02;;;;;;;5.03;1.00;;;16.50;91.10;;;;;;5052148;28;20025;-62
2022/10/06 10:00:35;;;;;;;6.65;1.92;;;16.70;90.90;;;;;;5052766;28;20021;-62
2022/10/06 10:03:12;;;;;;;4.50;0.98;;;16.90;90.60;;;;;;5051876;28;20395;-62
2022/10/06 10:05:46;;;;;;;5.03;0.93;;;17.10;89.90;;;;;;5050650;28;20543;-62
2022/10/06 10:08:11;;;;;;;7.07;1.05;;;17.30;89.30;;;;;;5051993;28;20116;-62
2022/10/06 10:10:38;;;;;;;6.10;0.90;;;17.50;88.20;;;;;;5051907;28;20112;-62
2022/10/06 10:13:23;;;;;;;4.45;0.80;;;17.80;87.50;;;;;;5053349;28;20020;-62
2022/10/06 10:16:00;;;;;;;4.85;0.75;;;18.30;85.10;;;;;;5067644;28;20021;-62
2022/10/06 10:18:29;;;;;;;4.13;0.98;;;19.10;84.90;;;;;;5052552;28;20558;-63
2022/10/06 10:20:57;;;;;;;4.80;0.90;;;20.10;81.00;;;;;;5051928;28;20385;-62
2022/10/06 10:23:28;;;;;;;4.82;1.00;;;23.30;76.80;;;;;;5050794;28;20032;-63
2022/10/06 10:26:06;;;;;;;3.08;0.80;;;25.40;64.00;;;;;;5049098;28;20021;-63
2022/10/06 10:28:57;;;;;;;3.97;1.25;;;24.60;60.10;;;;;;5064879;28;20048;-63
2022/10/06 10:31:48;;;;;;;4.50;0.95;;;23.60;59.40;;;;;;5052563;28;20029;-63
2022/10/06 10:34:57;;;;;;;4.45;0.90;;;23.30;60.40;;;;;;5052798;28;20021;-63
2022/10/06 10:37:28;;;;;;;;;;;23.50;60.20;;;;;;5052803;28;20029;-63
2022/10/06 10:40:23;;;;;;;3.13;0.90;;;24.00;59.00;;;;;;5044828;28;20280;-63
2022/10/06 10:42:56;;;;;;;5.03;1.20;;;25.10;57.30;;;;;;5051270;28;20351;-62
2022/10/06 10:45:34;;;;;;;5.78;1.33;;;26.00;55.60;;;;;;5048695;28;20036;-63
2022/10/06 10:48:03;;;;;;;4.25;0.90;;;27.10;53.20;;;;;;5053053;28;20021;-63
2022/10/06 10:50:53;;;;;;;5.40;1.02;;;29.20;50.60;;;;;;5049469;28;20029;-63
2022/10/06 10:53:54;;;;;;;4.22;1.10;;;31.90;47.30;;;;;;5052368;28;20048;-63
2022/10/06 10:56:23;;;;;;;4.70;1.20;;;33.80;43.00;;;;;;5033563;28;20037;-63
2022/10/06 10:59:02;;;;;;;4.60;1.23;;;35.10;39.60;;;;;;5048421;28;20021;-63
2022/10/06 11:01:36;;;;;;;2.88;1.00;;;36.20;39.40;;;;;;5048503;28;20683;-63
2022/10/06 11:04:02;;;;;;;5.13;1.10;;;37.80;38.10;;;;;;5047024;28;20021;-63
2022/10/06 11:06:52;;;;;;;4.55;0.82;;;38.10;35.40;;;;;;5050405;28;20083;-63
2022/10/06 11:09:40;;;;;;;4.90;1.35;;;36.60;36.50;;;;;;5048364;28;20021;-63
2022/10/06 11:12:20;;;;;;;3.75;1.40;;;35.80;36.30;;;;;;5028145;28;20512;-63
2022/10/06 11:15:14;;;;;;;3.83;1.27;;;33.20;38.00;;;;;;5052087;28;20036;-63
2022/10/06 11:17:45;;;;;;;4.55;1.40;;;31.10;40.00;;;;;;5041595;28;20083;-63
2022/10/06 11:20:14;;;;;;;3.25;0.95;;;31.90;41.00;;;;;;5051215;28;20057;-63
2022/10/06 11:23:20;;;;;;;7.57;1.10;;;34.60;39.40;;;;;;5049556;28;20138;-63
2022/10/06 11:26:11;;;;;;;3.97;1.15;;;37.00;36.80;;;;;;5049173;28;20048;-63
2022/10/06 11:29:06;;;;;;;4.38;1.00;;;38.90;35.10;;;;;;5041516;28;20044;-63
2022/10/06 11:31:43;;;;;;;4.43;1.52;;;38.90;34.20;;;;;;5050288;28;20025;-63
2022/10/06 11:34:09;;;;;;;3.63;0.83;;;39.40;33.90;;;;;;5050169;28;20027;-63
2022/10/06 11:36:54;;;;;;;3.72;1.15;;;39.90;32.90;;;;;;5050184;28;20017;-63
2022/10/06 11:39:47;;;;;;;4.50;1.10;;;38.30;33.40;;;;;;5050147;28;20060;-63
2022/10/06 11:42:34;;;;;;;3.35;1.15;;;37.20;33.40;;;;;;5048823;28;20048;-63
2022/10/06 11:45:04;;;;;;;3.97;1.13;;;36.10;34.30;;;;;;5050132;28;20063;-63
2022/10/06 11:47:37;;;;;;;3.92;1.17;;;36.50;34.10;;;;;;5050975;28;20091;-63
2022/10/06 11:50:35;;;;;;;3.83;1.13;;;35.50;33.90;;;;;;5050188;28;20021;-63
2022/10/06 11:53:01;;;;;;;3.97;1.20;;;33.70;35.00;;;;;;5050295;28;20108;-63
2022/10/06 11:55:40;;;;;;;5.50;1.58;;;32.60;36.60;;;;;;5050606;28;20495;-63
2022/10/06 11:58:09;;;;;;;;;;;33.50;36.10;;;;;;5046370;28;20024;-63
2022/10/06 12:00:35;;;;;;;2.00;0.80;;;34.90;35.50;;;;;;5039379;28;19904;-63
2022/10/06 12:03:32;;;;;;;2.70;1.00;;;36.20;35.30;;;;;;5039680;28;20025;-63
2022/10/06 12:05:58;;;;;;;2.70;1.00;;;37.00;33.50;;;;;;5050767;28;20115;-64
2022/10/06 12:08:39;;;;;;;3.83;1.13;;;37.90;33.40;;;;;;5040545;28;20097;-63
2022/10/06 12:11:41;;;;;;;4.35;1.00;;;38.50;32.40;;;;;;5050978;28;20427;-63
2022/10/06 12:14:37;;;;;;;2.60;0.88;;;38.50;32.10;;;;;;5050479;28;20048;-63
2022/10/06 12:17:18;;;;;;;3.67;1.05;;;38.90;32.00;;;;;;5036197;28;20035;-63
2022/10/06 12:19:57;;;;;;;3.80;1.02;;;39.60;31.70;;;;;;5042690;28;20512;-64
2022/10/06 12:22:37;;;;;;;3.28;0.93;;;39.50;31.00;;;;;;5054724;28;20028;-63
2022/10/06 12:25:31;;;;;;;3.22;1.10;;;39.80;31.20;;;;;;5042618;28;20070;-63
2022/10/06 12:28:18;;;;;;;3.67;1.30;;;40.20;31.40;;;;;;5067256;28;20048;-63
2022/10/06 12:31:11;;;;;;;3.25;1.25;;;40.30;30.90;;;;;;5052070;28;20021;-63
2022/10/06 12:33:39;;;;;;;4.38;1.08;;;40.20;30.90;;;;;;5042849;28;20017;-63
2022/10/06 12:36:15;;;;;;;5.68;1.17;;;40.30;30.60;;;;;;5050990;28;20079;-64
2022/10/06 12:38:59;;;;;;;4.35;1.17;;;40.50;30.30;;;;;;5052290;28;20059;-63
2022/10/06 12:41:55;;;;;;;4.10;1.23;;;39.70;30.90;;;;;;5041348;28;20484;-63
2022/10/06 12:44:24;;;;;;;5.05;1.20;;;39.70;30.90;;;;;;5054990;28;20025;-63
2022/10/06 12:46:50;;;;;;;2.75;1.15;;;39.70;30.90;;;;;;5042535;28;20026;-63
2022/10/06 12:49:20;;;;;;;2.05;0.82;;;39.90;30.60;;;;;;5054098;28;20113;-63
2022/10/06 12:51:48;;;;;;;3.03;1.02;;;40.20;30.70;;;;;;5053543;28;20017;-63
2022/10/06 12:54:27;;;;;;;;;;;40.60;30.10;;;;;;5055155;28;20108;-63
2022/10/06 12:57:00;;;;;;;3.97;1.30;;;40.70;29.90;;;;;;5052054;28;19904;-63
2022/10/06 12:59:34;;;;;;;1.58;0.93;;;40.90;30.00;;;;;;5047717;28;20082;-63
2022/10/06 13:02:08;;;;;;;3.20;1.10;;;40.90;30.00;;;;;;5051074;28;20469;-63
2022/10/06 13:04:40;;;;;;;2.38;1.02;;;41.30;30.00;;;;;;5048636;28;20100;-63
2022/10/06 13:07:17;;;;;;;5.15;1.10;;;41.20;29.60;;;;;;5044741;28;20078;-63
2022/10/06 13:09:44;;;;;;;3.95;1.02;;;40.40;29.80;;;;;;5047195;28;20028;-63
2022/10/06 13:12:26;;;;;;;3.75;1.10;;;39.50;29.70;;;;;;5049795;28;20467;-63
2022/10/06 13:15:23;;;;;;;2.88;0.90;;;38.80;30.20;;;;;;5055922;28;20067;-63
2022/10/06 13:18:10;;;;;;;3.13;0.90;;;37.90;31.20;;;;;;5044798;28;20021;-63
2022/10/06 13:20:48;;;;;;;2.83;1.00;;;37.50;31.80;;;;;;5054117;28;20021;-63
2022/10/06 13:23:25;;;;;;;2.50;0.77;;;36.80;31.70;;;;;;5055595;28;20471;-63
2022/10/06 13:26:20;;;;;;;3.00;0.95;;;36.20;31.90;;;;;;5046244;28;20100;-63